Flight Track Log - Related Links

Times and Time Zones

All times are in EDT time to prevent confusion due to time zone crossing. See the OPT429 flight status page for this flight to view local times or setup timezone preferences in your user account.

Time Position Orientation Groundspeed Altitude Reporting Facility
EDT Latitude Longitude Course Direction KTS MPH feet Rate Location/Type
Sun 12:15:26 PM 41.5503 -81.5072 180° South 158 182 2,200  Level Cleveland Center
Sun 12:16:32 PM 41.4939 -81.5067 192° South 203 234 3,600 1,500 Climbing Cleveland Center
Sun 12:16:54 PM 41.4864 -81.5203 234° Southwest 184 212 4,400 3,344 Climbing Cleveland Center
Sun 12:17:33 PM 41.4594 -81.5628 230° Southwest 204 235 7,000 3,387 Climbing Cleveland Center
Sun 12:17:56 PM 41.4492 -81.5750 222° Southwest 196 226 7,900 3,000 Climbing Cleveland Center
Sun 12:18:33 PM 41.4136 -81.6056 213° Southwest 203 234 10,000 3,097 Climbing Cleveland Center
Sun 12:18:58 PM 41.3944 -81.6214 212° Southwest 205 236 11,100 2,276 Climbing Cleveland Center
Sun 12:20:00 PM 41.3386 -81.6697 213° Southwest 235 270 13,300 2,516 Climbing Cleveland Center
Sun 12:21:02 PM 41.2764 -81.7236 213° Southwest 256 295 16,300 2,903 Climbing Cleveland Center
Sun 12:22:04 PM 41.2094 -81.7817 213° Southwest 275 316 19,300 2,855 Climbing Cleveland Center
Sun 12:23:06 PM 41.1475 -81.8358 213° Southwest 274 315 22,200 2,855 Climbing Cleveland Center
Sun 12:24:08 PM 41.0728 -81.8994 213° Southwest 272 313 25,200 2,496 Climbing Cleveland Center
Sun 12:25:11 PM 41.0100 -81.9536 213° Southwest 265 305 27,400 1,344 Climbing Cleveland Center
Sun 12:26:13 PM 40.9369 -82.0164 213° Southwest 309 356 28,000 532 Climbing Cleveland Center
Sun 12:27:15 PM 40.8481 -82.0822 209° Southwest 361 415 28,500 629 Climbing Cleveland Center
Sun 12:28:17 PM 40.7519 -82.1544 210° Southwest 389 448 29,300 1,548 Climbing Cleveland Center
Sun 12:29:19 PM 40.6589 -82.2217 209° Southwest 385 443 31,700 2,371 Climbing Cleveland Center
Sun 12:30:21 PM 40.5578 -82.2939 208° Southwest 356 410 34,200 1,512 Climbing Cleveland Center
Sun 12:31:26 PM 40.4689 -82.3578 209° Southwest 358 412 34,900 714 Climbing Indianapolis Center
Sun 12:32:27 PM 40.3744 -82.4258 209° Southwest 378 435 35,700 1,073 Climbing Indianapolis Center
Sun 12:33:29 PM 40.2781 -82.4967 209° Southwest 388 447 37,100 1,452 Climbing Indianapolis Center
Sun 12:34:31 PM 40.1819 -82.5639 208° Southwest 387 445 38,700 1,317 Climbing Indianapolis Center
Sun 12:35:32 PM 40.0781 -82.5922 192° South 387 445 39,800 927 Climbing Indianapolis Center
Sun 12:36:34 PM 39.9561 -82.6000 183° South 393 452 40,600 677 Climbing Indianapolis Center
Sun 12:37:36 PM 39.8572 -82.6075 183° South 393 452 41,200 683 Climbing Indianapolis Center
Sun 12:38:37 PM 39.7253 -82.6156 183° South 394 453 42,000 732 Climbing Indianapolis Center
Sun 12:39:39 PM 39.6161 -82.6225 183° South 394 453 42,700 484 Climbing Indianapolis Center
Sun 12:40:41 PM 39.5067 -82.6306 183° South 393 452 43,000 145 Climbing Indianapolis Center
Sun 12:41:43 PM 39.3931 -82.6383 183° South 399 459 43,000  Level Indianapolis Center
Sun 12:42:44 PM 39.2756 -82.6469 183° South 413 475 43,000  Level Indianapolis Center
Sun 12:43:46 PM 39.1489 -82.6558 183° South 417 480 43,000  Level Indianapolis Center
Sun 12:44:48 PM 39.0331 -82.6642 183° South 419 482 43,000  Level Indianapolis Center
Sun 12:45:49 PM 38.9203 -82.6717 183° South 412 474 43,000  Level Indianapolis Center
Sun 12:46:51 PM 38.8200 -82.7089 196° South 380 437 43,000  Level Indianapolis Center
Sun 12:47:53 PM 38.7200 -82.7500 198° South 377 434 43,000  Level Indianapolis Center
Sun 12:48:54 PM 38.6028 -82.7997 198° South 378 435 43,000  Level Indianapolis Center
Sun 12:49:56 PM 38.5011 -82.8419 198° South 380 437 43,000  Level Indianapolis Center
Sun 12:50:58 PM 38.4000 -82.8861 199° South 381 438 43,000  Level Indianapolis Center
Sun 12:51:59 PM 38.2983 -82.9272 198° South 381 438 43,000  Level Indianapolis Center
Sun 12:54:03 PM 38.0983 -83.0100 198° South 378 435 43,000  Level Indianapolis Center
Sun 12:55:04 PM 37.9808 -83.0600 199° South 378 435 43,000  Level Indianapolis Center
Sun 12:56:06 PM 37.8808 -83.1022 198° South 378 435 43,000  Level Indianapolis Center
Sun 12:57:08 PM 37.7814 -83.1436 198° South 378 435 43,000  Level Indianapolis Center
Sun 12:58:10 PM 37.6817 -83.1842 198° South 376 433 43,000  Level Indianapolis Center
Sun 12:59:11 PM 37.5794 -83.2250 198° South 381 438 43,000  Level Indianapolis Center
Sun 01:00:13 PM 37.4744 -83.2681 198° South 392 451 43,000 194 Level Indianapolis Center
Sun 01:01:15 PM 37.3525 -83.3186 198° South 395 455 43,400 390 Climbing Indianapolis Center
Sun 01:02:16 PM 37.2503 -83.3594 198° South 390 449 43,800 439 Climbing Indianapolis Center
Sun 01:03:18 PM 37.1494 -83.4014 198° South 388 447 44,300 484 Climbing Indianapolis Center
Sun 01:04:20 PM 37.0489 -83.4414 198° South 383 441 44,800 341 Climbing Indianapolis Center
Sun 01:05:21 PM 36.9478 -83.4819 198° South 383 441 45,000 98 Climbing Indianapolis Center
Sun 01:06:23 PM 36.8447 -83.5236 198° South 384 442 45,000  Level Indianapolis Center
Sun 01:07:25 PM 36.7208 -83.5733 198° South 395 455 45,000  Level Indianapolis Center
Sun 01:08:26 PM 36.6131 -83.6153 197° South 402 463 45,000  Level Indianapolis Center
Sun 01:09:28 PM 36.5006 -83.6597 198° South 406 467 45,000  Level Indianapolis Center
Sun 01:10:30 PM 36.3894 -83.7031 197° South 412 474 45,000  Level Indianapolis Center
Sun 01:11:31 PM 36.2767 -83.7472 198° South 417 480 45,000  Level Indianapolis Center
Sun 01:12:33 PM 36.1647 -83.7914 198° South 419 482 45,000  Level Indianapolis Center
Sun 01:13:35 PM 36.0522 -83.8353 198° South 420 483 45,000  Level Indianapolis Center
Sun 01:14:37 PM 35.9397 -83.8800 198° South 420 483 45,000  Level Indianapolis Center
Sun 01:15:38 PM 35.8356 -83.9428 206° Southwest 413 475 45,000  Level Indianapolis Center
Sun 01:16:40 PM 35.7172 -84.0283 210° Southwest 413 475 45,000  Level Indianapolis Center
Sun 01:17:42 PM 35.6158 -84.0989 210° Southwest 413 475 45,000  Level Indianapolis Center
Sun 01:18:48 PM 35.5158 -84.1714 211° Southwest 420 483 45,000  Level Atlanta Center
Sun 01:19:48 PM 35.4156 -84.2425 210° Southwest 420 483 45,000  Level Atlanta Center
Sun 01:20:48 PM 35.3175 -84.3111 210° Southwest 420 483 45,000  Level Atlanta Center
Sun 01:21:48 PM 35.2192 -84.3819 210° Southwest 420 483 45,000  Level Atlanta Center
Sun 01:22:48 PM 35.1208 -84.4528 211° Southwest 420 483 45,000  Level Atlanta Center
Sun 01:23:48 PM 35.0206 -84.5233 210° Southwest 420 483 45,000  Level Atlanta Center
Sun 01:24:48 PM 34.9222 -84.5936 210° Southwest 425 489 45,000  Level Atlanta Center
Sun 01:25:48 PM 34.8217 -84.6636 210° Southwest 420 483 45,000  Level Atlanta Center
Sun 01:26:48 PM 34.7147 -84.7386 210° Southwest 420 483 45,000  Level Atlanta Center
Sun 01:27:48 PM 34.6183 -84.8086 211° Southwest 420 483 45,000  Level Atlanta Center
Sun 01:28:48 PM 34.5197 -84.8808 211° Southwest 420 483 45,000  Level Atlanta Center
Sun 01:29:48 PM 34.4169 -84.9503 209° Southwest 420 483 45,000  Level Atlanta Center
Sun 01:30:48 PM 34.3164 -85.0197 210° Southwest 425 489 45,000  Level Atlanta Center
Sun 01:31:48 PM 34.2156 -85.0889 210° Southwest 425 489 45,000  Level Atlanta Center
Sun 01:32:48 PM 34.1128 -85.1603 210° Southwest 425 489 45,000  Level Atlanta Center
Sun 01:33:48 PM 34.0078 -85.2242 207° Southwest 425 489 45,000  Level Atlanta Center
Sun 01:34:48 PM 33.9047 -85.2878 207° Southwest 425 489 45,000  Level Atlanta Center
Sun 01:35:48 PM 33.7997 -85.3536 208° Southwest 425 489 45,000  Level Atlanta Center
Sun 01:36:48 PM 33.6967 -85.4194 208° Southwest 425 489 45,000  Level Atlanta Center
Sun 01:37:48 PM 33.5939 -85.4828 207° Southwest 420 483 45,000  Level Atlanta Center
Sun 01:38:48 PM 33.4886 -85.5483 207° Southwest 420 483 45,000  Level Atlanta Center
Sun 01:39:48 PM 33.3856 -85.6111 207° Southwest 415 478 45,000  Level Atlanta Center
Sun 01:40:48 PM 33.2847 -85.6714 207° Southwest 410 472 45,000  Level Atlanta Center
Sun 01:41:48 PM 33.1814 -85.7339 207° Southwest 410 472 45,000 -300 Level Atlanta Center
Sun 01:42:48 PM 33.0761 -85.7989 207° Southwest 415 478 44,400 -900 Descending Atlanta Center
Sun 01:43:48 PM 32.9708 -85.8636 207° Southwest 420 483 43,200 -1,350 Descending Atlanta Center
Sun 01:44:48 PM 32.8656 -85.9283 207° Southwest 420 483 41,700 -1,500 Descending Atlanta Center
Sun 01:45:48 PM 32.7581 -85.9925 207° Southwest 425 489 40,200 -1,500 Descending Atlanta Center
Sun 01:46:48 PM 32.6506 -86.0594 208° Southwest 430 495 38,700 -1,500 Descending Atlanta Center
Sun 01:47:48 PM 32.5472 -86.1258 208° Southwest 430 495 37,200 -1,400 Descending Atlanta Center
Sun 01:48:48 PM 32.4503 -86.1853 207° Southwest 443 510 35,900 -1,400 Descending Atlanta Center
Sun 01:49:48 PM 32.3469 -86.2442 206° Southwest 432 497 34,400 -1,500 Descending Atlanta Center
Sun 01:50:48 PM 32.2433 -86.3056 207° Southwest 426 490 32,900 -1,550 Descending Atlanta Center
Sun 01:51:48 PM 32.1342 -86.3469 198° South 419 482 31,300 -1,509 Descending Atlanta Center
Sun 01:53:27 PM 31.9492 -86.3936 192° South 404 465 28,900 -1,463 Descending Jacksonville Center
Sun 01:54:28 PM 31.8378 -86.4211 192° South 404 465 27,400 -1,500 Descending Jacksonville Center
Sun 01:55:27 PM 31.7283 -86.4514 193° South 404 465 25,900 -1,350 Descending Jacksonville Center
Sun 01:56:28 PM 31.6189 -86.4764 191° South 404 465 24,700 -992 Descending Jacksonville Center
Sun 01:57:28 PM 31.5181 -86.5067 194° South 393 452 23,900 -1,300 Descending Jacksonville Center
Sun 01:58:28 PM 31.4114 -86.5050 179° South 387 445 22,100 -1,900 Descending Jacksonville Center
Sun 01:59:28 PM 31.3094 -86.5008 178° South 381 438 20,100 -2,000 Descending Jacksonville Center
Sun 02:00:28 PM 31.2094 -86.4897 175° South 370 426 18,100 -1,916 Descending Jacksonville Center
Sun 02:01:27 PM 31.1100 -86.4667 169° South 370 426 16,300 -2,100 Descending Jacksonville Center
Sun 02:02:28 PM 31.0000 -86.4431 170° South 370 426 13,900 -1,785 Descending Jacksonville Center
Sun 02:03:28 PM 30.9067 -86.4203 168° South 370 426 12,700 -900 Descending Jacksonville Center
Sun 02:04:28 PM 30.8172 -86.4097 174° South 345 397 12,100 -750 Descending Jacksonville Center
Sun 02:05:28 PM 30.7361 -86.3944 171° South 318 366 11,200 -1,550 Descending Jacksonville Center
Sun 02:06:28 PM 30.6639 -86.3628 159° South 294 338 9,000 -2,200 Descending Jacksonville Center
Sun 02:07:28 PM 30.5936 -86.3386 164° South 281 323 6,800 -2,200 Descending Jacksonville Center
Sun 02:08:28 PM 30.5208 -86.3311 175° South 273 314 4,600 -2,200 Descending Jacksonville Center
Sun 02:10:00 PM 30.4000 -86.4667 180° South  Level FlightAware Approximate
Sun 02:17:00 PM 30.4000 -86.4715 180° South  Level Estimated
Sun 02:18:00 PM 30.4000 -86.4667 180° South  Level FlightAware Approximate

Login

Don't have an account? Register now (free) for customized features, flight alerts, and more!